Terminal Aerodrome Forecast
Issued by NWS

Home | Current Version | Previous Version | Graphics & Text | Print | Product List | Glossary On
Versions: 1 2 3 4 5 6 7 8 9 10 11 12 13
081
FTUS43 KICT 132142 AAA
TAFHUT
TAF AMD
KHUT 132142Z 1322/1418 33015G24KT P6SM SKC
     FM132300 34013KT P6SM SKC
     FM140100 35008KT P6SM SKC
     FM141100 34006KT P6SM OVC110=

USA.gov is the U.S. government's official web portal to all federal, state and local government web resources and services.